Time;durP1;ratioP1;P1;durP2;ratioP2;P2;SDS_P1;SDS_P2;PMS_P1;PMS_P2;Temp;Humidity;BMP_temperature;BMP_pressure;BME280_temperature;BME280_humidity;BME280_pressure;Samples;Min_cycle;Max_cycle;Signal;HPM_P1;HPM_P2
2024/01/30 00:00:35;;;;;;;5.57;3.07;;;13.40;99.90;;;;;;5114224;28;20414;-45
2024/01/30 00:03:00;;;;;;;4.30;2.67;;;14.30;99.90;;;;;;5113412;28;20207;-42
2024/01/30 00:05:26;;;;;;;5.40;4.03;;;14.90;99.90;;;;;;5082437;28;20490;-42
2024/01/30 00:07:53;;;;;;;5.70;5.20;;;15.10;99.90;;;;;;5117487;28;20175;-42
2024/01/30 00:10:20;;;;;;;6.93;6.00;;;14.80;1.00;;;;;;5118498;28;20176;-43
2024/01/30 00:12:46;;;;;;;5.60;5.10;;;14.30;99.90;;;;;;5118880;28;20486;-42
2024/01/30 00:15:11;;;;;;;7.63;6.27;;;13.60;99.90;;;;;;5101013;28;20429;-43
2024/01/30 00:17:37;;;;;;;6.03;5.47;;;13.00;99.90;;;;;;5120671;28;20214;-42
2024/01/30 00:20:07;;;;;;;6.00;3.97;;;12.50;99.90;;;;;;5119640;28;20598;-43
2024/01/30 00:22:32;;;;;;;6.10;4.00;;;12.70;27.70;;;;;;5099697;28;20183;-42
2024/01/30 00:24:58;;;;;;;8.37;5.10;;;13.10;99.90;;;;;;5084221;28;20452;-41
2024/01/30 00:27:24;;;;;;;5.30;4.03;;;13.60;1.00;;;;;;5118851;28;20568;-44
2024/01/30 00:29:49;;;;;;;5.20;4.50;;;14.20;1.00;;;;;;5118101;28;20176;-43
2024/01/30 00:32:15;;;;;;;5.80;4.23;;;14.60;99.90;;;;;;5118282;28;20403;-43
2024/01/30 00:34:42;;;;;;;5.10;3.73;;;15.10;1.00;;;;;;5118393;28;20563;-42
2024/01/30 00:37:07;;;;;;;4.63;4.10;;;15.40;43.40;;;;;;5118519;28;20184;-43
2024/01/30 00:39:33;;;;;;;6.13;4.83;;;15.60;99.90;;;;;;5101040;28;20425;-44
2024/01/30 00:41:58;;;;;;;5.90;5.10;;;15.40;1.00;;;;;;5118937;28;20183;-42
2024/01/30 00:44:24;;;;;;;5.80;5.30;;;14.80;99.90;;;;;;5120256;28;20211;-43
2024/01/30 00:46:50;;;;;;;5.87;5.27;;;14.20;99.90;;;;;;5101949;28;20172;-41
2024/01/30 00:49:15;;;;;;;6.30;5.70;;;13.70;99.90;;;;;;5101530;28;20172;-44
2024/01/30 00:51:41;;;;;;;6.70;6.03;;;13.10;99.90;;;;;;5120273;28;20410;-44
2024/01/30 00:54:07;;;;;;;6.70;6.03;;;12.70;99.90;;;;;;5120470;28;20211;-42
2024/01/30 00:56:33;;;;;;;6.60;6.00;;;12.30;99.90;;;;;;5120857;28;20191;-41
2024/01/30 00:58:58;;;;;;;6.70;6.00;;;11.90;99.90;;;;;;5119017;28;20172;-46
2024/01/30 01:01:24;;;;;;;7.43;6.77;;;11.60;99.90;;;;;;5117508;28;20489;-41
2024/01/30 01:03:50;;;;;;;7.30;5.90;;;11.30;99.90;;;;;;5118045;28;20208;-42
2024/01/30 01:06:15;;;;;;;7.00;6.30;;;11.10;99.90;;;;;;5118162;28;20291;-42
2024/01/30 01:08:41;;;;;;;7.10;6.40;;;10.90;99.90;;;;;;5118689;28;20172;-43
2024/01/30 01:11:06;;;;;;;7.00;6.30;;;10.70;99.90;;;;;;5117396;28;20191;-42
2024/01/30 01:13:32;;;;;;;7.20;6.50;;;10.50;99.90;;;;;;5118365;28;20183;-42
2024/01/30 01:15:57;;;;;;;7.13;6.27;;;10.40;99.90;;;;;;5118673;28;20175;-43
2024/01/30 01:18:23;;;;;;;7.87;6.83;;;10.30;99.90;;;;;;5100526;28;20579;-42
2024/01/30 01:20:49;;;;;;;6.80;6.13;;;10.20;99.90;;;;;;5118455;28;20215;-45
2024/01/30 01:23:15;;;;;;;8.10;6.53;;;10.10;99.90;;;;;;5117859;28;20215;-41
2024/01/30 01:25:40;;;;;;;7.73;6.67;;;10.00;99.90;;;;;;5119220;28;20707;-40
2024/01/30 01:28:06;;;;;;;8.10;7.30;;;9.90;99.90;;;;;;5119664;28;20180;-41
2024/01/30 01:30:31;;;;;;;6.37;5.77;;;9.80;99.90;;;;;;5118441;28;20183;-44
2024/01/30 01:33:00;;;;;;;6.90;6.20;;;9.80;99.90;;;;;;5118178;28;20619;-41
2024/01/30 01:35:26;;;;;;;6.87;6.10;;;9.70;99.90;;;;;;5118965;28;20184;-42
2024/01/30 01:37:54;;;;;;;6.80;6.00;;;9.60;99.90;;;;;;5118985;28;20498;-41
2024/01/30 01:40:23;;;;;;;7.10;6.40;;;9.50;99.90;;;;;;5119774;28;20638;-43
2024/01/30 01:42:51;;;;;;;6.57;5.97;;;9.40;99.90;;;;;;5100348;28;20520;-41
2024/01/30 01:45:18;;;;;;;6.47;5.80;;;9.40;99.90;;;;;;5117260;28;20409;-42
2024/01/30 01:47:45;;;;;;;6.40;5.80;;;9.30;99.90;;;;;;5117931;28;20436;-42
2024/01/30 01:50:15;;;;;;;7.60;6.30;;;9.30;99.90;;;;;;5100567;28;20430;-43
2024/01/30 01:52:40;;;;;;;7.00;6.30;;;9.20;99.90;;;;;;5099842;28;20429;-43
2024/01/30 01:55:06;;;;;;;7.57;6.37;;;9.10;99.90;;;;;;5118137;28;20445;-42
2024/01/30 01:57:33;;;;;;;6.57;5.97;;;9.10;99.90;;;;;;5100807;28;20203;-42
2024/01/30 01:59:59;;;;;;;6.63;5.93;;;9.10;99.90;;;;;;5117155;28;20417;-41
2024/01/30 02:02:26;;;;;;;6.70;5.97;;;9.00;99.90;;;;;;5099066;28;20544;-40
2024/01/30 02:04:52;;;;;;;6.87;5.83;;;8.90;99.90;;;;;;5117507;28;20556;-43
2024/01/30 02:07:18;;;;;;;7.13;6.43;;;8.90;99.90;;;;;;5117044;28;20816;-40
2024/01/30 02:09:43;;;;;;;7.20;6.50;;;8.80;99.90;;;;;;5117785;28;20183;-42
2024/01/30 02:12:09;;;;;;;7.13;6.40;;;8.70;99.90;;;;;;5116401;28;20561;-42
2024/01/30 02:14:47;;;;;;;6.87;6.20;;;8.70;99.90;;;;;;5098932;28;20469;-42
2024/01/30 02:17:14;;;;;;;7.40;6.60;;;8.70;99.90;;;;;;5118668;28;20549;-42
2024/01/30 02:19:44;;;;;;;7.40;6.40;;;8.60;99.90;;;;;;5099704;28;20843;-41
2024/01/30 02:22:09;;;;;;;7.70;7.00;;;8.50;99.90;;;;;;5117451;28;20494;-43
2024/01/30 02:24:35;;;;;;;6.60;5.30;;;8.50;99.90;;;;;;5117242;28;20477;-41
2024/01/30 02:27:01;;;;;;;6.83;6.13;;;8.50;99.90;;;;;;5115411;28;20262;-42
2024/01/30 02:29:26;;;;;;;6.53;5.37;;;8.40;99.90;;;;;;5116568;28;20240;-42
2024/01/30 02:31:52;;;;;;;7.23;5.77;;;8.40;99.90;;;;;;5115733;28;20236;-41
2024/01/30 02:34:19;;;;;;;6.73;6.10;;;8.40;99.90;;;;;;5098382;28;20592;-42
2024/01/30 02:36:45;;;;;;;7.33;6.27;;;8.30;99.90;;;;;;5116427;28;20192;-41
2024/01/30 02:39:10;;;;;;;7.00;6.30;;;8.30;99.90;;;;;;5117156;28;20745;-42
2024/01/30 02:41:36;;;;;;;6.70;6.07;;;8.30;99.90;;;;;;5117125;28;20406;-41
2024/01/30 02:44:03;;;;;;;7.13;6.10;;;8.20;99.90;;;;;;5116852;28;20294;-41
2024/01/30 02:46:28;;;;;;;8.10;7.30;;;8.20;99.90;;;;;;5118575;28;20472;-41
2024/01/30 02:48:54;;;;;;;6.40;5.80;;;8.20;99.90;;;;;;5117819;28;20421;-41
2024/01/30 02:51:20;;;;;;;8.00;6.20;;;8.10;99.90;;;;;;5116075;28;20179;-43
2024/01/30 02:53:45;;;;;;;6.37;5.77;;;8.10;99.90;;;;;;5116061;28;20205;-43
2024/01/30 02:56:11;;;;;;;7.60;5.70;;;8.00;99.90;;;;;;5116197;28;20176;-42
2024/01/30 02:58:37;;;;;;;7.10;6.40;;;8.00;99.90;;;;;;5117255;28;20453;-44
2024/01/30 03:01:03;;;;;;;7.30;6.60;;;8.00;99.90;;;;;;5117892;28;20422;-42
2024/01/30 03:03:30;;;;;;;6.70;5.83;;;7.90;99.90;;;;;;5099650;28;20291;-40
2024/01/30 03:05:56;;;;;;;7.80;6.80;;;7.90;99.90;;;;;;5096314;28;20224;-41
2024/01/30 03:08:21;;;;;;;6.77;5.93;;;7.90;99.90;;;;;;5097295;28;20506;-42
2024/01/30 03:10:47;;;;;;;6.43;5.80;;;7.80;99.90;;;;;;5096680;28;20184;-42
2024/01/30 03:13:12;;;;;;;7.10;6.07;;;7.80;99.90;;;;;;5096707;28;20185;-40
2024/01/30 03:15:38;;;;;;;6.50;5.90;;;7.80;99.90;;;;;;5096109;28;20470;-40
2024/01/30 03:18:04;;;;;;;7.30;6.50;;;7.70;99.90;;;;;;5096714;28;20229;-43
2024/01/30 03:20:30;;;;;;;7.50;6.43;;;7.70;99.90;;;;;;5095222;28;20249;-42
2024/01/30 03:22:56;;;;;;;5.40;4.80;;;7.70;99.90;;;;;;5093274;28;20565;-41
2024/01/30 03:25:21;;;;;;;6.47;5.50;;;7.60;99.90;;;;;;5095734;28;20176;-43
2024/01/30 03:27:47;;;;;;;6.60;5.90;;;7.60;99.90;;;;;;5095554;28;20236;-42
2024/01/30 03:30:13;;;;;;;6.30;5.70;;;7.60;99.90;;;;;;5095713;28;20164;-42
2024/01/30 03:32:38;;;;;;;7.03;6.33;;;7.50;99.90;;;;;;5094920;28;20197;-41
2024/01/30 03:35:04;;;;;;;6.93;6.33;;;7.50;99.90;;;;;;5094839;28;20181;-41
2024/01/30 03:37:30;;;;;;;7.97;6.23;;;7.40;99.90;;;;;;5095673;28;20547;-42
2024/01/30 03:39:55;;;;;;;8.43;6.17;;;7.40;99.90;;;;;;5100635;28;20422;-41
2024/01/30 03:42:22;;;;;;;7.10;5.43;;;7.40;99.90;;;;;;5099431;28;20181;-42
2024/01/30 03:44:48;;;;;;;7.70;6.30;;;7.40;99.90;;;;;;5099875;28;20267;-41
2024/01/30 03:47:13;;;;;;;7.13;6.43;;;7.30;99.90;;;;;;5099969;28;20611;-41
2024/01/30 03:49:39;;;;;;;7.27;6.50;;;7.30;1.00;;;;;;5100645;28;20196;-42
2024/01/30 03:52:05;;;;;;;6.70;6.00;;;7.30;1.00;;;;;;5101091;28;20168;-41
2024/01/30 03:54:30;;;;;;;7.30;6.60;;;7.30;1.00;;;;;;5098985;28;20426;-42
2024/01/30 03:56:56;;;;;;;8.03;6.57;;;7.20;99.90;;;;;;5099352;28;20180;-43
2024/01/30 03:59:23;;;;;;;7.33;6.30;;;7.20;1.00;;;;;;5101075;28;20188;-43
2024/01/30 04:01:51;;;;;;;7.63;6.93;;;7.10;1.00;;;;;;5100295;28;20274;-41
2024/01/30 04:04:17;;;;;;;6.60;6.00;;;7.20;1.00;;;;;;5099942;28;20508;-42
2024/01/30 04:06:43;;;;;;;7.23;6.47;;;7.10;1.00;;;;;;5100760;28;20441;-42
2024/01/30 04:09:09;;;;;;;7.70;6.50;;;7.10;1.00;;;;;;5102264;28;20426;-42
2024/01/30 04:11:35;;;;;;;8.30;6.37;;;7.10;1.00;;;;;;5099973;28;20438;-42
2024/01/30 04:14:01;;;;;;;7.70;6.70;;;7.00;1.00;;;;;;5099258;28;20489;-43
2024/01/30 04:16:26;;;;;;;7.50;6.67;;;7.00;1.00;;;;;;5101328;28;20418;-44
2024/01/30 04:18:52;;;;;;;7.70;6.00;;;7.00;1.00;;;;;;5101349;28;20253;-43
2024/01/30 04:21:18;;;;;;;8.43;7.00;;;6.90;1.00;;;;;;5099892;28;20172;-41
2024/01/30 04:23:43;;;;;;;9.47;7.47;;;7.00;1.00;;;;;;5100935;28;20227;-42
2024/01/30 04:26:09;;;;;;;7.83;6.80;;;6.90;1.00;;;;;;5099962;28;20192;-41
2024/01/30 04:28:35;;;;;;;9.43;6.73;;;6.90;1.00;;;;;;5100504;28;20196;-41
2024/01/30 04:31:01;;;;;;;8.00;5.90;;;6.90;1.00;;;;;;5099426;28;20173;-40
2024/01/30 04:33:26;;;;;;;9.00;7.20;;;6.80;1.00;;;;;;5098954;28;20684;-44
2024/01/30 04:35:52;;;;;;;7.00;6.30;;;6.80;1.00;;;;;;5099608;28;20329;-42
2024/01/30 04:38:18;;;;;;;6.83;6.13;;;6.80;1.00;;;;;;5098882;28;20172;-39
2024/01/30 04:40:43;;;;;;;8.60;6.33;;;6.80;1.00;;;;;;5099464;28;20216;-42
2024/01/30 04:43:09;;;;;;;8.63;7.37;;;6.80;1.00;;;;;;5099428;28;20299;-42
2024/01/30 04:45:34;;;;;;;7.47;6.67;;;6.80;1.00;;;;;;5100039;28;20191;-40
2024/01/30 04:48:00;;;;;;;8.03;7.23;;;6.70;1.00;;;;;;5100200;28;20424;-42
2024/01/30 04:50:26;;;;;;;8.30;7.50;;;6.70;1.00;;;;;;5098780;28;20192;-44
2024/01/30 04:52:52;;;;;;;8.40;7.50;;;6.60;1.00;;;;;;5100079;28;20484;-42
2024/01/30 04:55:18;;;;;;;8.03;7.20;;;6.60;1.00;;;;;;5097192;28;20419;-40
2024/01/30 04:57:43;;;;;;;10.07;8.37;;;6.60;1.00;;;;;;5099851;28;20270;-41
2024/01/30 05:00:09;;;;;;;7.80;7.03;;;6.60;1.00;;;;;;5098278;28;20188;-41
2024/01/30 05:02:35;;;;;;;8.30;7.50;;;6.50;1.00;;;;;;5098981;28;20696;-41
2024/01/30 05:05:01;;;;;;;8.30;7.50;;;6.50;1.00;;;;;;5097122;28;20592;-41
2024/01/30 05:07:26;;;;;;;8.77;7.87;;;6.50;1.00;;;;;;5099278;28;20260;-41
2024/01/30 05:09:52;;;;;;;8.03;7.23;;;6.50;1.00;;;;;;5098692;28;20176;-41
2024/01/30 05:12:17;;;;;;;10.53;7.77;;;6.50;1.00;;;;;;5098632;28;20358;-41
2024/01/30 05:14:43;;;;;;;7.83;7.03;;;6.50;1.00;;;;;;5099002;28;20216;-43
2024/01/30 05:17:10;;;;;;;10.07;7.70;;;6.40;1.00;;;;;;5098873;28;20180;-41
2024/01/30 05:19:36;;;;;;;7.27;6.60;;;6.40;1.00;;;;;;5098701;28;20252;-44
2024/01/30 05:22:01;;;;;;;7.10;6.40;;;6.40;1.00;;;;;;5099960;28;20415;-41
2024/01/30 05:24:27;;;;;;;7.17;6.47;;;6.40;1.00;;;;;;5098761;28;20491;-46
2024/01/30 05:26:52;;;;;;;7.20;6.50;;;6.40;1.00;;;;;;5098014;28;20434;-40
2024/01/30 05:29:18;;;;;;;7.07;6.37;;;6.40;1.00;;;;;;5098164;28;20238;-41
2024/01/30 05:31:44;;;;;;;7.53;6.80;;;6.40;1.00;;;;;;5097635;28;20603;-44
2024/01/30 05:34:09;;;;;;;7.47;6.67;;;6.30;1.00;;;;;;5095952;28;20204;-41
2024/01/30 05:36:35;;;;;;;9.63;6.40;;;6.30;1.00;;;;;;5096296;28;20183;-41
2024/01/30 05:39:01;;;;;;;7.00;6.33;;;6.30;1.00;;;;;;5094401;28;20252;-43
2024/01/30 05:41:27;;;;;;;6.10;5.13;;;6.30;1.00;;;;;;5077543;28;20362;-40
2024/01/30 05:43:53;;;;;;;5.57;5.07;;;6.30;1.00;;;;;;5093938;28;20267;-41
2024/01/30 05:46:18;;;;;;;7.77;6.23;;;6.30;2.50;;;;;;5093799;28;20826;-41
2024/01/30 05:48:44;;;;;;;6.90;6.20;;;6.20;12.60;;;;;;5096209;28;20276;-41
2024/01/30 05:51:09;;;;;;;7.13;6.20;;;6.30;45.30;;;;;;5097663;28;20184;-41
2024/01/30 05:53:35;;;;;;;6.30;5.70;;;6.20;1.00;;;;;;5096195;28;20216;-41
2024/01/30 05:56:04;;;;;;;5.53;4.97;;;6.20;1.00;;;;;;5097416;28;20176;-40
2024/01/30 05:58:31;;;;;;;6.60;5.90;;;6.20;1.00;;;;;;5095828;28;20230;-40
2024/01/30 06:00:57;;;;;;;5.80;5.30;;;6.20;1.00;;;;;;5094850;28;20430;-41
2024/01/30 06:03:22;;;;;;;7.20;5.53;;;6.20;1.00;;;;;;5096928;28;20855;-42
2024/01/30 06:05:48;;;;;;;6.27;5.03;;;6.20;1.00;;;;;;5113267;28;20477;-41
2024/01/30 06:08:14;;;;;;;9.33;6.60;;;6.20;1.00;;;;;;5097123;28;20280;-40
2024/01/30 06:10:40;;;;;;;6.13;5.47;;;6.20;1.00;;;;;;5108490;28;20202;-40
2024/01/30 06:13:06;;;;;;;6.53;5.90;;;6.20;1.00;;;;;;5098591;28;20207;-40
2024/01/30 06:15:32;;;;;;;8.07;6.40;;;6.10;34.30;;;;;;5099131;28;20425;-43
2024/01/30 06:17:58;;;;;;;6.60;6.00;;;6.20;14.00;;;;;;5116949;28;20266;-42
2024/01/30 06:20:24;;;;;;;5.87;5.10;;;6.10;9.80;;;;;;5114940;28;20428;-42
2024/01/30 06:22:49;;;;;;;7.53;6.70;;;6.10;4.10;;;;;;5094164;28;20441;-43
2024/01/30 06:25:16;;;;;;;7.00;5.87;;;6.10;1.00;;;;;;5113147;28;20361;-40
2024/01/30 06:27:42;;;;;;;6.60;6.00;;;6.10;1.00;;;;;;5113782;28;20515;-41
2024/01/30 06:30:08;;;;;;;7.43;6.73;;;6.10;1.00;;;;;;5114534;28;20433;-42
2024/01/30 06:32:35;;;;;;;8.53;6.80;;;6.10;1.00;;;;;;5096921;28;20716;-44
2024/01/30 06:35:01;;;;;;;6.73;6.13;;;6.10;1.00;;;;;;5116224;28;20207;-40
2024/01/30 06:37:27;;;;;;;8.83;6.53;;;6.00;1.00;;;;;;5117149;28;20496;-41
2024/01/30 06:39:52;;;;;;;6.57;5.97;;;6.00;1.30;;;;;;5115752;28;20494;-43
2024/01/30 06:42:18;;;;;;;7.50;6.70;;;6.00;3.30;;;;;;5096303;28;20183;-41
2024/01/30 06:44:44;;;;;;;7.70;7.00;;;6.00;6.90;;;;;;5114245;28;20183;-41
2024/01/30 06:47:10;;;;;;;7.30;6.60;;;6.00;11.90;;;;;;5114174;28;20497;-41
2024/01/30 06:49:38;;;;;;;7.43;6.73;;;6.00;16.00;;;;;;5112878;28;20180;-40
2024/01/30 06:52:05;;;;;;;8.70;7.43;;;6.00;17.30;;;;;;5114222;28;20401;-41
2024/01/30 06:54:32;;;;;;;7.20;5.97;;;6.00;16.20;;;;;;5104939;28;20477;-42
2024/01/30 06:56:58;;;;;;;8.00;6.80;;;6.00;16.70;;;;;;5092384;28;20479;-40
2024/01/30 06:59:24;;;;;;;8.03;7.23;;;6.00;22.90;;;;;;5092117;28;20419;-41
2024/01/30 07:01:49;;;;;;;8.10;7.20;;;6.00;24.50;;;;;;5093375;28;20429;-41
2024/01/30 07:04:16;;;;;;;8.33;7.47;;;6.10;27.00;;;;;;5093230;28;20379;-41
2024/01/30 07:06:41;;;;;;;9.07;8.10;;;6.10;24.20;;;;;;5094974;28;20180;-41
2024/01/30 07:09:08;;;;;;;9.50;8.50;;;6.10;23.30;;;;;;5096101;28;20768;-42
2024/01/30 07:11:34;;;;;;;9.13;8.17;;;6.10;20.00;;;;;;5095725;28;20484;-40
2024/01/30 07:13:59;;;;;;;6.67;3.63;;;6.10;99.90;;;;;;5078465;28;20462;-43
2024/01/30 07:16:25;;;;;;;3.83;3.10;;;6.70;99.90;;;;;;5095518;28;20489;-41
2024/01/30 07:18:51;;;;;;;4.10;3.20;;;7.60;1.00;;;;;;5095354;28;20263;-41
2024/01/30 07:21:17;;;;;;;6.80;3.40;;;8.60;1.00;;;;;;5077437;28;20257;-43
2024/01/30 07:23:42;;;;;;;4.60;3.90;;;9.40;1.00;;;;;;5095179;28;20188;-42
2024/01/30 07:26:08;;;;;;;5.00;3.70;;;10.10;1.00;;;;;;5078689;28;20237;-42
2024/01/30 07:28:35;;;;;;;4.33;3.87;;;10.70;1.00;;;;;;5095616;28;20176;-42
2024/01/30 07:31:01;;;;;;;7.60;4.30;;;11.30;99.90;;;;;;5076884;28;20614;-44
2024/01/30 07:33:26;;;;;;;5.90;4.13;;;11.80;99.90;;;;;;5096735;28;20944;-42
2024/01/30 07:35:53;;;;;;;6.60;5.10;;;12.20;1.00;;;;;;5092787;28;20426;-41
2024/01/30 07:38:19;;;;;;;5.23;4.37;;;12.60;99.90;;;;;;5093889;28;20474;-42
2024/01/30 07:40:44;;;;;;;6.67;4.63;;;12.90;1.00;;;;;;5094250;28;20423;-43
2024/01/30 07:43:10;;;;;;;5.93;4.30;;;13.20;99.90;;;;;;5094199;28;20414;-44
2024/01/30 07:45:37;;;;;;;4.77;4.30;;;13.40;99.90;;;;;;5095654;28;20273;-42
2024/01/30 07:48:03;;;;;;;6.03;4.50;;;13.70;1.00;;;;;;5091043;28;20241;-42
2024/01/30 07:50:28;;;;;;;6.27;4.17;;;13.90;1.00;;;;;;5093475;28;21086;-44
2024/01/30 07:52:56;;;;;;;5.70;4.60;;;14.10;1.00;;;;;;5095933;28;20468;-41
2024/01/30 07:55:24;;;;;;;6.57;4.77;;;14.30;29.70;;;;;;5095286;28;20176;-42
2024/01/30 07:57:52;;;;;;;6.37;4.40;;;14.40;99.90;;;;;;5075902;28;20842;-41
2024/01/30 08:00:19;;;;;;;5.03;4.37;;;14.60;59.10;;;;;;5091586;28;20419;-42
2024/01/30 08:02:45;;;;;;;6.30;4.80;;;14.70;1.00;;;;;;5094763;28;20422;-42
2024/01/30 08:05:11;;;;;;;5.60;4.20;;;14.90;99.90;;;;;;5094370;28;20584;-41
2024/01/30 08:07:37;;;;;;;4.60;4.00;;;15.00;99.90;;;;;;5077722;28;20204;-46
2024/01/30 08:10:03;;;;;;;4.90;4.30;;;15.20;99.90;;;;;;5093445;28;20527;-42
2024/01/30 08:12:29;;;;;;;5.10;3.77;;;15.40;1.00;;;;;;5094055;28;20426;-45
2024/01/30 08:14:54;;;;;;;4.63;4.13;;;15.60;1.00;;;;;;5093581;28;20783;-42
2024/01/30 08:17:20;;;;;;;4.10;3.70;;;15.80;1.00;;;;;;5093973;28;20195;-45
2024/01/30 08:19:45;;;;;;;4.83;4.37;;;16.00;1.00;;;;;;5094787;28;20192;-42
2024/01/30 08:22:12;;;;;;;5.10;4.60;;;16.30;1.00;;;;;;5094768;28;20249;-42
2024/01/30 08:24:40;;;;;;;5.40;3.87;;;16.50;99.90;;;;;;5095725;28;20176;-40
2024/01/30 08:27:06;;;;;;;5.17;4.20;;;16.80;99.90;;;;;;5097950;28;20461;-46
2024/01/30 08:29:32;;;;;;;4.17;3.63;;;17.10;99.90;;;;;;5097799;28;20426;-40
2024/01/30 08:31:59;;;;;;;4.00;3.60;;;17.30;99.90;;;;;;5098328;28;20700;-43
2024/01/30 08:34:24;;;;;;;5.23;4.43;;;17.60;99.90;;;;;;5099229;28;20296;-41
2024/01/30 08:36:50;;;;;;;4.23;3.83;;;17.80;99.90;;;;;;5097157;28;20480;-41
2024/01/30 08:39:15;;;;;;;4.60;4.20;;;17.90;99.90;;;;;;5080252;28;20181;-40
2024/01/30 08:41:41;;;;;;;3.90;3.50;;;17.90;99.90;;;;;;5096996;28;20267;-41
2024/01/30 08:44:07;;;;;;;4.23;3.77;;;18.00;99.90;;;;;;5096737;28;20486;-42
2024/01/30 08:46:33;;;;;;;4.00;3.63;;;18.00;99.90;;;;;;5097465;28;20462;-41
2024/01/30 08:48:59;;;;;;;4.83;4.33;;;17.90;99.90;;;;;;5097033;28;20438;-42
2024/01/30 08:51:24;;;;;;;5.07;4.57;;;17.90;99.90;;;;;;5097713;28;20496;-43
2024/01/30 08:53:52;;;;;;;4.33;3.93;;;17.90;99.90;;;;;;5095717;28;20573;-42
2024/01/30 08:56:18;;;;;;;4.60;4.20;;;17.90;99.90;;;;;;5096361;28;20184;-42
2024/01/30 08:58:43;;;;;;;4.93;4.50;;;18.00;99.90;;;;;;5097360;28;20437;-44
2024/01/30 09:01:09;;;;;;;5.40;4.90;;;18.10;99.90;;;;;;5095880;28;20184;-42
2024/01/30 09:03:36;;;;;;;6.87;5.17;;;18.30;99.90;;;;;;5062517;28;20264;-41
2024/01/30 09:06:02;;;;;;;5.60;5.10;;;18.40;99.90;;;;;;5096338;28;20482;-43
2024/01/30 09:08:28;;;;;;;7.67;5.40;;;18.60;96.70;;;;;;5097165;28;20521;-42
2024/01/30 09:10:53;;;;;;;6.20;5.60;;;18.70;85.80;;;;;;5095523;28;20815;-43
2024/01/30 09:13:19;;;;;;;7.37;6.67;;;18.90;68.40;;;;;;5095415;28;20204;-43
2024/01/30 09:15:45;;;;;;;5.80;5.30;;;19.10;65.60;;;;;;5095340;28;20180;-42
2024/01/30 09:18:10;;;;;;;7.43;6.10;;;19.20;56.00;;;;;;5078627;28;20245;-42
2024/01/30 09:20:36;;;;;;;11.00;6.20;;;19.30;53.30;;;;;;5096739;28;20287;-41
2024/01/30 09:23:01;;;;;;;6.77;5.90;;;19.40;46.70;;;;;;5097375;28;20199;-43
2024/01/30 09:25:27;;;;;;;6.70;6.10;;;19.60;48.20;;;;;;5096579;28;20471;-41
2024/01/30 09:27:52;;;;;;;6.90;6.20;;;19.80;47.20;;;;;;5097689;28;20267;-43
2024/01/30 09:30:18;;;;;;;6.60;6.00;;;19.90;48.00;;;;;;5096784;28;20195;-41
2024/01/30 09:32:44;;;;;;;6.10;5.60;;;19.80;45.20;;;;;;5096833;28;20188;-42
2024/01/30 09:35:09;;;;;;;6.90;6.30;;;19.90;48.10;;;;;;5095113;28;20177;-42
2024/01/30 09:37:35;;;;;;;5.63;5.20;;;19.80;44.80;;;;;;5095224;28;20238;-42
2024/01/30 09:40:00;;;;;;;6.20;5.60;;;19.80;42.20;;;;;;5095003;28;20267;-42
2024/01/30 09:42:36;;;;;;;5.83;5.33;;;19.80;40.20;;;;;;5093271;28;20169;-42
2024/01/30 09:45:03;;;;;;;5.97;5.37;;;19.90;40.10;;;;;;5076791;28;20442;-41
2024/01/30 09:47:32;;;;;;;5.80;5.23;;;20.00;38.70;;;;;;5094790;28;20473;-42
2024/01/30 09:49:58;;;;;;;5.00;4.50;;;20.10;36.50;;;;;;5097310;28;20427;-41
2024/01/30 09:52:24;;;;;;;5.37;4.87;;;20.10;38.00;;;;;;5096977;28;20574;-43
2024/01/30 09:54:52;;;;;;;4.50;4.10;;;20.10;40.80;;;;;;5077184;28;20462;-41
2024/01/30 09:57:17;;;;;;;6.63;4.67;;;20.10;40.20;;;;;;5079476;28;20180;-44
2024/01/30 09:59:44;;;;;;;5.43;4.93;;;20.10;38.10;;;;;;5096882;28;20425;-42
2024/01/30 10:02:10;;;;;;;4.43;4.13;;;20.00;38.60;;;;;;5096285;28;20168;-42
2024/01/30 10:04:36;;;;;;;4.83;4.33;;;20.00;38.20;;;;;;5078074;28;20481;-41
2024/01/30 10:07:02;;;;;;;4.33;3.93;;;20.10;41.70;;;;;;5095491;28;20417;-40
2024/01/30 10:09:31;;;;;;;4.67;4.27;;;20.20;44.70;;;;;;5077456;28;20434;-41
2024/01/30 10:11:57;;;;;;;5.17;4.57;;;20.30;45.10;;;;;;5076396;28;20435;-41
2024/01/30 10:14:22;;;;;;;5.37;4.13;;;20.40;46.00;;;;;;5094159;28;20500;-43
2024/01/30 10:16:48;;;;;;;4.20;3.80;;;20.50;39.30;;;;;;5095863;28;20452;-44
2024/01/30 10:19:14;;;;;;;4.03;3.63;;;20.60;44.00;;;;;;5076964;28;20438;-42
2024/01/30 10:21:40;;;;;;;5.10;3.90;;;20.60;40.90;;;;;;5093913;28;20173;-42
2024/01/30 10:24:06;;;;;;;4.13;3.70;;;20.60;39.00;;;;;;5093076;28;20219;-41
2024/01/30 10:26:34;;;;;;;5.43;4.00;;;20.70;41.00;;;;;;5076657;28;20704;-42
2024/01/30 10:28:59;;;;;;;4.90;3.70;;;20.60;34.50;;;;;;5095240;28;20629;-41
2024/01/30 10:31:25;;;;;;;3.70;3.40;;;20.60;40.70;;;;;;5095433;28;20627;-43
2024/01/30 10:33:51;;;;;;;4.10;3.50;;;20.70;36.80;;;;;;5094709;28;20736;-42
2024/01/30 10:36:17;;;;;;;4.67;3.60;;;20.60;1.00;;;;;;5095790;28;20259;-42
2024/01/30 10:38:46;;;;;;;6.77;3.67;;;20.70;1.00;;;;;;5077499;28;20180;-42
2024/01/30 10:41:14;;;;;;;4.07;3.67;;;20.80;1.00;;;;;;5095410;28;20517;-45
2024/01/30 10:43:47;;;;;;;4.20;3.80;;;20.90;1.00;;;;;;5075617;28;20434;-45
2024/01/30 10:46:19;;;;;;;3.90;3.50;;;21.00;1.00;;;;;;5077576;28;20441;-44
2024/01/30 10:48:51;;;;;;;5.50;3.73;;;21.10;1.00;;;;;;5075802;28;20542;-42
2024/01/30 10:51:16;;;;;;;9.20;3.80;;;21.20;1.00;;;;;;5076000;28;20438;-42
2024/01/30 10:53:44;;;;;;;4.20;3.70;;;21.30;1.00;;;;;;5075466;28;20480;-41
2024/01/30 10:56:10;;;;;;;4.20;3.37;;;21.40;1.00;;;;;;5093726;28;20416;-43
2024/01/30 10:58:36;;;;;;;4.73;4.20;;;21.60;1.00;;;;;;5075555;28;20525;-44
2024/01/30 11:01:02;;;;;;;5.93;3.97;;;21.70;1.00;;;;;;5076222;28;20514;-41
2024/01/30 11:03:28;;;;;;;4.10;3.33;;;21.80;1.00;;;;;;5075242;28;20254;-44
2024/01/30 11:05:53;;;;;;;3.87;3.40;;;21.90;1.00;;;;;;5091480;28;20569;-43
2024/01/30 11:08:28;;;;;;;3.47;3.10;;;21.90;1.00;;;;;;5093588;28;20531;-42
2024/01/30 11:10:58;;;;;;;6.67;3.40;;;21.90;1.00;;;;;;5077298;28;20441;-44
2024/01/30 11:13:30;;;;;;;4.17;3.63;;;21.90;1.00;;;;;;5094162;28;20486;-42
2024/01/30 11:16:06;;;;;;;4.77;3.87;;;21.80;1.00;;;;;;5093491;28;20497;-41
2024/01/30 11:18:33;;;;;;;3.77;3.30;;;21.80;1.00;;;;;;5093613;28;20454;-41
2024/01/30 11:21:01;;;;;;;4.37;3.30;;;21.80;1.00;;;;;;5092823;28;20437;-41
2024/01/30 11:23:28;;;;;;;3.63;3.33;;;21.80;1.00;;;;;;5093930;28;20499;-44
2024/01/30 11:25:54;;;;;;;3.33;2.43;;;21.80;1.00;;;;;;5094323;28;20453;-41
2024/01/30 11:28:21;;;;;;;3.77;3.47;;;21.80;1.00;;;;;;5093920;28;20431;-42
2024/01/30 11:30:47;;;;;;;7.17;3.23;;;21.80;1.00;;;;;;5095342;28;20664;-42
2024/01/30 11:33:14;;;;;;;5.07;3.20;;;21.80;1.00;;;;;;5076737;28;20493;-43
2024/01/30 11:35:43;;;;;;;3.70;2.30;;;21.80;1.00;;;;;;5092416;28;20437;-42
2024/01/30 11:38:10;;;;;;;4.40;3.00;;;21.80;1.00;;;;;;5093833;28;20419;-43
2024/01/30 11:40:37;;;;;;;3.40;2.63;;;21.80;1.00;;;;;;5096158;28;20434;-42
2024/01/30 11:43:07;;;;;;;3.73;3.40;;;21.80;1.00;;;;;;5094726;28;20411;-41
2024/01/30 11:45:33;;;;;;;2.90;2.60;;;21.90;1.00;;;;;;5094866;28;20518;-44
2024/01/30 11:48:01;;;;;;;4.00;2.77;;;21.90;1.00;;;;;;5092626;28;20430;-42
2024/01/30 11:50:26;;;;;;;3.60;2.70;;;21.90;1.00;;;;;;5093605;28;20423;-42
2024/01/30 11:52:53;;;;;;;3.00;2.70;;;21.90;1.00;;;;;;5076873;28;20438;-46
2024/01/30 11:55:19;;;;;;;3.87;2.87;;;21.90;1.00;;;;;;5077173;28;20161;-45
2024/01/30 11:57:45;;;;;;;5.00;2.83;;;21.90;1.00;;;;;;5075798;28;20417;-43
2024/01/30 12:00:18;;;;;;;3.30;3.00;;;21.80;1.00;;;;;;5097326;28;20426;-46
2024/01/30 12:02:57;;;;;;;3.77;3.20;;;21.80;1.00;;;;;;5077749;28;20195;-42
2024/01/30 12:05:23;;;;;;;4.27;3.57;;;21.60;1.00;;;;;;5096967;28;20461;-42
2024/01/30 12:07:49;;;;;;;3.17;2.97;;;21.30;1.00;;;;;;5079090;28;20422;-44
2024/01/30 12:10:15;;;;;;;4.57;3.30;;;21.00;1.00;;;;;;5097582;28;20419;-43
2024/01/30 12:12:47;;;;;;;4.20;3.80;;;20.70;1.00;;;;;;5096911;28;20169;-44
2024/01/30 12:15:13;;;;;;;3.40;3.10;;;20.50;1.00;;;;;;5097572;28;20184;-43
2024/01/30 12:17:39;;;;;;;3.60;3.30;;;20.40;1.00;;;;;;5097070;28;20859;-42
2024/01/30 12:20:12;;;;;;;3.40;3.10;;;20.30;1.00;;;;;;5078777;28;20616;-42
2024/01/30 12:22:38;;;;;;;3.93;2.77;;;20.20;1.00;;;;;;5078826;28;20188;-43
2024/01/30 12:25:11;;;;;;;2.90;2.60;;;20.30;1.00;;;;;;5096473;28;20486;-43
2024/01/30 12:27:37;;;;;;;2.93;2.63;;;20.50;1.00;;;;;;5080559;28;20410;-41
2024/01/30 12:30:07;;;;;;;3.43;2.57;;;20.80;1.00;;;;;;5095689;28;20422;-42
2024/01/30 12:32:36;;;;;;;4.20;3.50;;;21.00;1.00;;;;;;5096023;28;20427;-42
2024/01/30 12:35:01;;;;;;;4.40;3.70;;;21.30;1.00;;;;;;5058806;28;20560;-41
2024/01/30 12:37:29;;;;;;;4.20;3.80;;;21.40;1.00;;;;;;5093679;28;20842;-44
2024/01/30 12:39:55;;;;;;;3.80;3.40;;;21.50;1.00;;;;;;5078412;28;20828;-45
2024/01/30 12:42:23;;;;;;;4.63;4.20;;;21.50;1.00;;;;;;5076927;28;20597;-43
2024/01/30 12:44:50;;;;;;;4.73;3.57;;;21.50;1.00;;;;;;5095544;28;20446;-44
2024/01/30 12:47:16;;;;;;;4.20;3.80;;;21.60;1.00;;;;;;5096569;28;20426;-49
2024/01/30 12:49:45;;;;;;;7.60;4.30;;;21.60;1.00;;;;;;5096552;28;20426;-42